CYPR/YPR METAR and TAF weather

Enter ICAO airport designator
Station Type Date Time Source
CYPR METAR 2020/09/19 21:00 UTC NOAA

CYPR 192100Z AUTO 24005KT 200V310 9SM SCT018 OVC026 13/12 A2994 RMK SLP142


Station Type Date Time Source
CYPR Decoded METAR 2020/09/19 21:00 UTC NOAA

Prince Rupert, B. C., Canada (CYPR) 54-18N 130-26W 34M
Sep 19, 2020 - 05:00 PM EDT / 2020.09.19 2100 UTC
Wind: from the WSW (240 degrees) at 6 MPH (5 KT) (direction variable):0
Visibility: 9 mile(s):0
Sky conditions: overcast
Temperature: 55 F (13 C)
Dew Point: 53 F (12 C)
Relative Humidity: 93%
Pressure (altimeter): 29.94 in. Hg (1013 hPa)
ob: CYPR 192100Z AUTO 24005KT 200V310 9SM SCT018 OVC026 13/12 A2994 RMK SLP142
cycle: 21

Station Type Date Time Source
CYPR TAF 2020/09/19 21:09 UTC NOAA

TAF
AMD TAF
AMD CYPR 192108Z 1921/2007 28005KT P6SM SCT006 OVC025
TEMPO 1921/2007 3SM -SHRA BR OVC006
RMK FCST BASED ON AUTO OBS. NXT FCST BY 200100Z

Example: see airport list